Time;durP1;ratioP1;P1;durP2;ratioP2;P2;SDS_P1;SDS_P2;PMS_P1;PMS_P2;Temp;Humidity;BMP_temperature;BMP_pressure;BME280_temperature;BME280_humidity;BME280_pressure;Samples;Min_cycle;Max_cycle;Signal;HPM_P1;HPM_P2
2021/12/26 00:01:11;;;;;;;13.45;6.07;;;;;;;-6.45;100.00;98303.91;5153890;27;20046;-61
2021/12/26 00:03:39;;;;;;;13.88;5.28;;;;;;;-6.41;100.00;98301.50;5154397;27;20093;-61
2021/12/26 00:06:08;;;;;;;13.57;5.35;;;;;;;-6.35;100.00;98302.28;5154263;27;20107;-62
2021/12/26 00:08:36;;;;;;;12.10;5.18;;;;;;;-6.35;100.00;98310.28;5154058;27;20050;-62
2021/12/26 00:11:03;;;;;;;13.85;6.25;;;;;;;-6.26;100.00;98296.09;5153942;27;20091;-62
2021/12/26 00:13:30;;;;;;;14.13;6.13;;;;;;;-6.24;100.00;98290.47;5154050;27;20046;-61
2021/12/26 00:15:57;;;;;;;9.25;4.95;;;;;;;-6.28;100.00;98278.75;5153889;27;20057;-61
2021/12/26 00:18:24;;;;;;;9.50;4.35;;;;;;;-6.37;100.00;98272.41;5153704;27;20053;-62
2021/12/26 00:20:51;;;;;;;9.30;4.97;;;;;;;-6.32;100.00;98264.38;5153426;27;20062;-61
2021/12/26 00:23:18;;;;;;;10.27;4.97;;;;;;;-6.25;100.00;98271.00;5153838;27;20144;-61
2021/12/26 00:25:44;;;;;;;10.60;4.68;;;;;;;-6.34;100.00;98253.97;5154058;27;20474;-61
2021/12/26 00:28:11;;;;;;;9.85;4.20;;;;;;;-6.32;100.00;98262.50;5153656;27;20051;-62
2021/12/26 00:30:37;;;;;;;11.68;5.32;;;;;;;-6.24;100.00;98256.56;5153803;27;20149;-61
2021/12/26 00:33:05;;;;;;;10.13;4.75;;;;;;;-6.23;100.00;98260.03;5153122;27;20099;-61
2021/12/26 00:35:32;;;;;;;6.53;4.55;;;;;;;-6.23;100.00;98247.50;5153649;27;20511;-61
2021/12/26 00:37:58;;;;;;;10.50;4.40;;;;;;;-6.21;100.00;98247.22;5153527;27;20051;-62
2021/12/26 00:40:26;;;;;;;15.65;4.95;;;;;;;-6.22;100.00;98253.66;5153768;27;20425;-61
2021/12/26 00:42:54;;;;;;;8.57;4.53;;;;;;;-6.17;100.00;98240.25;5153250;27;20058;-62
2021/12/26 00:45:20;;;;;;;9.95;4.13;;;;;;;-6.12;100.00;98245.56;5153267;27;20183;-62
2021/12/26 00:47:47;;;;;;;11.55;4.70;;;;;;;-6.13;100.00;98251.16;5153463;27;20103;-62
2021/12/26 00:50:19;;;;;;;11.13;4.28;;;;;;;-6.11;100.00;98257.81;5153224;27;20501;-61
2021/12/26 00:52:46;;;;;;;11.88;4.45;;;;;;;-6.07;100.00;98271.41;5153341;27;20053;-62
2021/12/26 00:55:15;;;;;;;11.95;4.43;;;;;;;-6.05;100.00;98262.06;5153350;27;20130;-62
2021/12/26 00:57:42;;;;;;;10.48;4.13;;;;;;;-6.10;100.00;98255.94;5153497;27;20043;-61
2021/12/26 01:00:12;;;;;;;10.65;4.78;;;;;;;-6.08;100.00;98253.81;5152912;27;20053;-61
2021/12/26 01:02:38;;;;;;;13.90;4.55;;;;;;;-6.03;100.00;98251.09;5152840;27;20058;-62
2021/12/26 01:05:06;;;;;;;9.30;4.45;;;;;;;-6.05;100.00;98264.72;5152163;27;20133;-62
2021/12/26 01:07:42;;;;;;;8.35;4.78;;;;;;;-6.08;100.00;98277.81;5152964;27;20042;-61
2021/12/26 01:10:10;;;;;;;14.18;4.40;;;;;;;-6.04;100.00;98292.19;5153447;27;20051;-62
2021/12/26 01:12:38;;;;;;;12.48;4.72;;;;;;;-5.97;100.00;98288.13;5153150;27;20595;-61
2021/12/26 01:15:08;;;;;;;12.73;4.20;;;;;;;-5.94;100.00;98295.59;5153004;27;20057;-62
2021/12/26 01:17:35;;;;;;;9.15;4.15;;;;;;;-5.86;100.00;98288.84;5152819;27;20137;-61
2021/12/26 01:20:03;;;;;;;8.20;3.90;;;;;;;-5.96;100.00;98273.72;5152770;27;20103;-61
2021/12/26 01:22:30;;;;;;;11.57;4.18;;;;;;;-5.88;100.00;98274.97;5152430;27;20099;-62
2021/12/26 01:24:56;;;;;;;10.38;3.97;;;;;;;-5.84;100.00;98277.88;5152677;27;20455;-62
2021/12/26 01:27:24;;;;;;;16.80;4.85;;;;;;;-5.85;100.00;98265.63;5152687;27;20505;-61
2021/12/26 01:29:50;;;;;;;12.75;4.43;;;;;;;-5.86;100.00;98270.16;5152930;27;20161;-62
2021/12/26 01:32:17;;;;;;;14.35;4.35;;;;;;;-5.76;100.00;98256.72;5152542;27;20106;-62
2021/12/26 01:34:43;;;;;;;10.57;4.30;;;;;;;-5.76;100.00;98261.28;5152064;27;20046;-61
2021/12/26 01:37:10;;;;;;;11.43;4.30;;;;;;;-5.75;100.00;98266.31;5152533;27;20050;-62
2021/12/26 01:39:36;;;;;;;9.77;4.57;;;;;;;-5.75;100.00;98239.63;5152527;27;20051;-62
2021/12/26 01:42:03;;;;;;;8.95;4.25;;;;;;;-5.74;100.00;98254.56;5152499;27;20082;-62
2021/12/26 01:44:34;;;;;;;11.73;4.82;;;;;;;-5.70;100.00;98246.78;5152356;27;20051;-62
2021/12/26 01:47:00;;;;;;;12.77;4.70;;;;;;;-5.63;100.00;98247.28;5152542;27;20050;-62
2021/12/26 01:49:30;;;;;;;10.50;4.55;;;;;;;-5.63;100.00;98241.94;5152463;27;20505;-62
2021/12/26 01:51:59;;;;;;;8.80;4.50;;;;;;;-5.57;100.00;98256.81;5152232;27;20053;-62
2021/12/26 01:54:31;;;;;;;13.60;4.68;;;;;;;-5.56;100.00;98249.63;5152310;27;20046;-62
2021/12/26 01:56:58;;;;;;;9.95;4.70;;;;;;;-5.56;100.00;98244.28;5152536;27;20146;-62
2021/12/26 01:59:25;;;;;;;13.43;5.22;;;;;;;-5.52;100.00;98251.44;5152065;27;20046;-62
2021/12/26 02:01:54;;;;;;;6.95;4.32;;;;;;;-5.55;100.00;98243.19;5151941;27;20477;-62
2021/12/26 02:04:21;;;;;;;10.27;4.57;;;;;;;-5.60;100.00;98244.00;5152165;27;20046;-62
2021/12/26 02:06:47;;;;;;;14.82;4.40;;;;;;;-5.57;100.00;98248.00;5152111;27;20054;-62
2021/12/26 02:09:13;;;;;;;9.32;4.60;;;;;;;-5.45;100.00;98256.44;5152026;27;20054;-62
2021/12/26 02:11:40;;;;;;;11.32;4.45;;;;;;;-5.46;100.00;98252.19;5152134;27;20088;-62
2021/12/26 02:14:06;;;;;;;12.60;5.05;;;;;;;-5.41;100.00;98251.31;5151741;27;20047;-62
2021/12/26 02:16:34;;;;;;;15.75;4.95;;;;;;;-5.35;100.00;98255.53;5151415;27;20047;-62
2021/12/26 02:19:01;;;;;;;11.70;4.32;;;;;;;-5.30;100.00;98242.94;5151689;27;20089;-62
2021/12/26 02:21:44;;;;;;;11.02;4.70;;;;;;;-5.37;100.00;98233.66;5151768;27;20047;-62
2021/12/26 02:24:17;;;;;;;12.07;4.88;;;;;;;-5.37;100.00;98239.78;5151634;27;20488;-62
2021/12/26 02:29:27;;;;;;;;;;;;;;;-5.30;100.00;98237.59;5152158;27;20046;-62
2021/12/26 02:31:54;;;;;;;12.98;5.70;;;;;;;-5.32;100.00;98241.63;5151903;27;19923;-62
2021/12/26 02:34:21;;;;;;;13.88;5.18;;;;;;;-5.33;100.00;98246.19;5151149;27;20046;-62
2021/12/26 02:36:48;;;;;;;12.88;5.88;;;;;;;-5.34;100.00;98252.56;5151761;27;20065;-62
2021/12/26 02:39:15;;;;;;;12.70;5.60;;;;;;;-5.33;100.00;98264.06;5151511;27;20091;-62
2021/12/26 02:41:41;;;;;;;11.85;5.63;;;;;;;-5.32;100.00;98252.31;5151505;27;20050;-62
2021/12/26 02:44:08;;;;;;;12.38;5.53;;;;;;;-5.32;100.00;98263.78;5151586;27;20053;-62
2021/12/26 02:46:34;;;;;;;13.82;5.80;;;;;;;-5.22;100.00;98254.88;5151346;27;20050;-62
2021/12/26 02:49:00;;;;;;;11.10;5.50;;;;;;;-5.28;100.00;98258.66;5151287;27;20524;-62
2021/12/26 02:51:27;;;;;;;12.55;5.85;;;;;;;-5.29;100.00;98263.22;5151279;27;20052;-62
2021/12/26 02:53:54;;;;;;;16.90;6.47;;;;;;;-5.36;100.00;98259.31;5151552;27;20051;-62
2021/12/26 02:56:20;;;;;;;19.25;6.00;;;;;;;-5.29;100.00;98260.56;5151415;27;20050;-62
2021/12/26 02:58:46;;;;;;;18.00;6.50;;;;;;;-5.35;100.00;98255.53;5151452;27;20053;-62
2021/12/26 03:01:17;;;;;;;10.95;5.65;;;;;;;-5.38;100.00;98266.78;5151177;27;20046;-62
2021/12/26 03:03:44;;;;;;;9.20;5.20;;;;;;;-5.46;100.00;98261.00;5151581;27;20509;-61
2021/12/26 03:06:17;;;;;;;12.85;5.53;;;;;;;-5.46;100.00;98274.34;5151341;27;20402;-62
2021/12/26 03:08:46;;;;;;;16.35;6.07;;;;;;;-5.44;100.00;98268.72;5151358;27;20138;-62
2021/12/26 03:11:13;;;;;;;13.60;5.63;;;;;;;-5.41;100.00;98278.03;5151125;27;20482;-62
2021/12/26 03:13:39;;;;;;;12.00;5.55;;;;;;;-5.43;100.00;98283.69;5151061;27;20137;-62
2021/12/26 03:16:05;;;;;;;16.10;6.57;;;;;;;-5.38;100.00;98288.94;5151171;27;20480;-61
2021/12/26 03:18:32;;;;;;;11.05;5.65;;;;;;;-5.37;100.00;98293.22;5151200;27;20050;-62
2021/12/26 03:20:58;;;;;;;16.35;6.10;;;;;;;-5.39;100.00;98291.91;5150979;27;20050;-62
2021/12/26 03:23:26;;;;;;;17.70;7.15;;;;;;;-5.40;100.00;98284.97;5151065;27;20046;-62
2021/12/26 03:25:55;;;;;;;22.67;6.78;;;;;;;-5.44;100.00;98306.09;5151115;27;20102;-62
2021/12/26 03:28:22;;;;;;;15.05;6.97;;;;;;;-5.38;100.00;98312.19;5151051;27;20054;-62
2021/12/26 03:30:50;;;;;;;14.13;6.72;;;;;;;-5.40;100.00;98312.47;5154751;27;20057;-62
2021/12/26 03:33:17;;;;;;;18.35;7.63;;;;;;;-5.33;100.00;98323.66;5154328;27;20129;-62
2021/12/26 03:35:43;;;;;;;26.85;8.00;;;;;;;-5.39;100.00;98302.59;5154721;27;20520;-62
2021/12/26 03:38:11;;;;;;;19.60;7.78;;;;;;;-5.45;100.00;98310.66;5154483;27;20069;-62
2021/12/26 03:40:39;;;;;;;17.85;6.82;;;;;;;-5.42;100.00;98321.88;5154400;27;20137;-62
2021/12/26 03:43:05;;;;;;;15.82;7.22;;;;;;;-5.33;100.00;98317.47;5154491;27;20055;-62
2021/12/26 03:45:32;;;;;;;16.85;6.65;;;;;;;-5.28;100.00;98314.78;5154706;27;20053;-62
2021/12/26 03:47:59;;;;;;;16.02;7.18;;;;;;;-5.29;100.00;98291.81;5154568;27;20050;-62
2021/12/26 03:50:27;;;;;;;13.43;6.05;;;;;;;-5.29;100.00;98300.63;5154247;27;20053;-62
2021/12/26 03:52:56;;;;;;;15.93;6.78;;;;;;;-5.22;100.00;98310.97;5154582;27;20101;-62
2021/12/26 03:55:23;;;;;;;15.15;6.32;;;;;;;-5.16;100.00;98306.38;5154139;27;20050;-62
2021/12/26 03:57:49;;;;;;;13.52;7.40;;;;;;;-5.20;100.00;98322.16;5154305;27;20047;-62
2021/12/26 04:00:16;;;;;;;17.35;6.30;;;;;;;-5.13;100.00;98319.97;5154317;27;20051;-62
2021/12/26 04:02:44;;;;;;;17.48;7.00;;;;;;;-5.13;100.00;98308.47;5154293;27;20141;-62
2021/12/26 04:05:12;;;;;;;15.55;6.70;;;;;;;-5.14;100.00;98322.91;5154010;27;20482;-62
2021/12/26 04:07:38;;;;;;;19.35;7.75;;;;;;;-5.16;100.00;98306.38;5154036;27;20057;-62
2021/12/26 04:10:06;;;;;;;19.27;7.57;;;;;;;-5.13;100.00;98311.97;5153821;27;20067;-62
2021/12/26 04:12:36;;;;;;;17.88;7.57;;;;;;;-5.02;100.00;98299.28;5153858;27;20088;-62
2021/12/26 04:15:04;;;;;;;14.30;7.38;;;;;;;-5.01;100.00;98298.19;5153709;27;20050;-62
2021/12/26 04:17:30;;;;;;;17.30;7.35;;;;;;;-5.05;100.00;98310.53;5153680;27;20054;-62
2021/12/26 04:19:57;;;;;;;16.90;6.40;;;;;;;-5.03;100.00;98319.06;5153971;27;20053;-62
2021/12/26 04:22:23;;;;;;;20.02;7.75;;;;;;;-5.01;100.00;98306.22;5153685;27;20122;-62
2021/12/26 04:24:50;;;;;;;15.07;7.18;;;;;;;-4.93;100.00;98315.47;5153839;27;20443;-62
2021/12/26 04:27:16;;;;;;;17.75;6.88;;;;;;;-4.87;100.00;98315.13;5153712;27;20398;-62
2021/12/26 04:29:42;;;;;;;13.15;7.53;;;;;;;-4.80;100.00;98318.28;5153620;27;20133;-62
2021/12/26 04:32:08;;;;;;;14.85;6.57;;;;;;;-4.70;100.00;98311.22;5153719;27;20050;-62
2021/12/26 04:34:35;;;;;;;16.13;6.90;;;;;;;-4.68;100.00;98317.88;5153492;27;20050;-62
2021/12/26 04:37:02;;;;;;;15.02;6.90;;;;;;;-4.70;100.00;98320.03;5153330;27;20042;-62
2021/12/26 04:39:28;;;;;;;14.63;7.45;;;;;;;-4.67;100.00;98313.31;5153159;27;20106;-62
2021/12/26 04:41:54;;;;;;;13.23;7.40;;;;;;;-4.66;100.00;98302.34;5153734;27;20123;-62
2021/12/26 04:44:23;;;;;;;13.85;7.25;;;;;;;-4.65;100.00;98308.50;5153677;27;20103;-62
2021/12/26 04:46:49;;;;;;;18.40;7.15;;;;;;;-4.65;100.00;98317.31;5153179;27;20470;-62
2021/12/26 04:49:16;;;;;;;13.23;6.97;;;;;;;-4.69;100.00;98313.63;5153540;27;20137;-62
2021/12/26 04:51:42;;;;;;;14.15;6.70;;;;;;;-4.65;100.00;98321.88;5153715;27;20050;-62
2021/12/26 04:54:09;;;;;;;16.88;7.93;;;;;;;-4.51;100.00;98314.72;5153427;27;20097;-62
2021/12/26 04:56:35;;;;;;;15.80;7.25;;;;;;;-4.50;100.00;98310.97;5153589;27;20459;-62
2021/12/26 04:59:03;;;;;;;15.52;6.80;;;;;;;-4.51;100.00;98318.19;5153289;27;20163;-62
2021/12/26 05:01:29;;;;;;;18.15;7.45;;;;;;;-4.58;100.00;98316.97;5153304;27;20062;-61
2021/12/26 05:03:55;;;;;;;13.82;6.97;;;;;;;-4.58;100.00;98308.94;5153095;27;20046;-62
2021/12/26 05:06:21;;;;;;;13.23;7.18;;;;;;;-4.59;100.00;98312.69;5152817;27;20099;-62
2021/12/26 05:08:48;;;;;;;13.20;7.30;;;;;;;-4.52;100.00;98305.91;5152851;27;20050;-62
2021/12/26 05:11:15;;;;;;;13.50;7.70;;;;;;;-4.46;100.00;98297.81;5153171;27;20051;-62
2021/12/26 05:13:41;;;;;;;14.68;7.30;;;;;;;-4.51;100.00;98293.34;5153123;27;20049;-62
2021/12/26 05:16:07;;;;;;;14.02;7.05;;;;;;;-4.51;100.00;98304.03;5152919;27;20114;-62
2021/12/26 05:18:34;;;;;;;18.17;8.32;;;;;;;-4.55;100.00;98311.03;5152711;27;20152;-62
2021/12/26 05:21:00;;;;;;;21.05;8.45;;;;;;;-4.63;100.00;98315.16;5152882;27;20042;-61
2021/12/26 05:23:27;;;;;;;17.75;7.70;;;;;;;-4.59;100.00;98321.53;5152954;27;20142;-62
2021/12/26 05:25:53;;;;;;;18.67;8.13;;;;;;;-4.52;100.00;98337.22;5152717;27;20050;-62
2021/12/26 05:28:20;;;;;;;16.42;8.10;;;;;;;-4.55;100.00;98333.22;5152682;27;20054;-63
2021/12/26 05:30:46;;;;;;;19.48;8.55;;;;;;;-4.55;100.00;98322.53;5152598;27;20489;-61
2021/12/26 05:33:12;;;;;;;17.17;9.10;;;;;;;-4.54;100.00;98348.19;5152203;27;20138;-62
2021/12/26 05:35:39;;;;;;;22.67;9.70;;;;;;;-4.48;100.00;98321.41;5152282;27;20043;-62
2021/12/26 05:38:05;;;;;;;16.00;7.57;;;;;;;-4.50;100.00;98335.03;5152540;27;20050;-62
2021/12/26 05:40:31;;;;;;;19.13;8.65;;;;;;;-4.49;100.00;98333.97;5152514;27;20053;-62
2021/12/26 05:42:57;;;;;;;18.05;7.80;;;;;;;-4.42;100.00;98322.94;5152325;27;20051;-62
2021/12/26 05:45:24;;;;;;;18.92;7.85;;;;;;;-4.46;100.00;98328.06;5152587;27;20053;-62
2021/12/26 05:47:51;;;;;;;19.55;8.63;;;;;;;-4.39;100.00;98336.53;5152166;27;20518;-62
2021/12/26 05:50:19;;;;;;;18.23;8.73;;;;;;;-4.40;100.00;98324.22;5152514;27;20053;-62
2021/12/26 05:52:46;;;;;;;19.83;8.18;;;;;;;-4.33;100.00;98318.50;5151509;27;20069;-62
2021/12/26 05:55:13;;;;;;;17.85;7.72;;;;;;;-4.33;100.00;98307.81;5152500;27;20046;-62
2021/12/26 05:57:40;;;;;;;13.73;7.53;;;;;;;-4.31;100.00;98311.78;5152092;27;20592;-62
2021/12/26 06:00:09;;;;;;;18.50;7.43;;;;;;;-4.38;100.00;98306.00;5152156;27;20056;-62
2021/12/26 06:02:36;;;;;;;14.48;7.35;;;;;;;-4.30;100.00;98302.69;5151857;27;20074;-62
2021/12/26 06:05:03;;;;;;;11.43;6.88;;;;;;;-4.28;100.00;98305.84;5152107;27;20055;-62
2021/12/26 06:07:29;;;;;;;14.60;8.00;;;;;;;-4.34;100.00;98319.59;5152267;27;20054;-62
2021/12/26 06:09:55;;;;;;;13.82;7.13;;;;;;;-4.32;100.00;98334.28;5151880;27;20050;-62
2021/12/26 06:12:22;;;;;;;16.83;7.53;;;;;;;-4.32;100.00;98331.59;5152195;27;20059;-62
2021/12/26 06:14:48;;;;;;;14.23;6.93;;;;;;;-4.22;100.00;98338.72;5152004;27;20049;-62
2021/12/26 06:17:14;;;;;;;20.77;7.75;;;;;;;-4.16;100.00;98342.13;5151937;27;20053;-62
2021/12/26 06:19:42;;;;;;;21.40;8.00;;;;;;;-4.10;100.00;98335.59;5151853;27;20057;-62
2021/12/26 06:22:08;;;;;;;11.77;7.20;;;;;;;-4.15;100.00;98327.66;5151660;27;20137;-62
2021/12/26 06:24:34;;;;;;;17.35;7.35;;;;;;;-4.18;100.00;98336.25;5151669;27;20469;-62
2021/12/26 06:27:01;;;;;;;21.45;8.27;;;;;;;-4.14;100.00;98332.69;5151831;27;20055;-62
2021/12/26 06:29:27;;;;;;;18.95;7.53;;;;;;;-4.14;100.00;98342.63;5151588;27;20046;-62
2021/12/26 06:31:53;;;;;;;11.32;6.70;;;;;;;-4.09;100.00;98339.88;5151586;27;20083;-62
2021/12/26 06:34:20;;;;;;;12.65;6.95;;;;;;;-4.07;100.00;98343.84;5151293;27;20103;-62
2021/12/26 06:36:47;;;;;;;13.05;7.30;;;;;;;-4.06;100.00;98334.75;5151525;27;20054;-62
2021/12/26 06:39:13;;;;;;;15.45;7.82;;;;;;;-4.05;100.00;98332.84;5151761;27;20135;-62
2021/12/26 06:41:40;;;;;;;12.25;7.07;;;;;;;-4.05;100.00;98346.25;5151709;27;20054;-62
2021/12/26 06:44:07;;;;;;;18.75;7.22;;;;;;;-3.98;100.00;98354.72;5151645;27;20051;-62
2021/12/26 06:46:35;;;;;;;15.32;8.32;;;;;;;-3.98;100.00;98338.66;5151362;27;20103;-62
2021/12/26 06:49:01;;;;;;;15.32;7.55;;;;;;;-3.92;100.00;98342.84;5151728;27;20081;-62
2021/12/26 06:51:27;;;;;;;16.50;7.15;;;;;;;-3.94;100.00;98336.97;5151340;27;20061;-62
2021/12/26 06:53:54;;;;;;;14.27;6.82;;;;;;;-3.90;100.00;98337.19;5151452;27;20540;-62
2021/12/26 06:56:20;;;;;;;16.83;7.95;;;;;;;-3.89;100.00;98342.28;5151148;27;20042;-62
2021/12/26 06:58:46;;;;;;;10.90;6.55;;;;;;;-3.92;100.00;98339.38;5151292;27;20050;-62
2021/12/26 07:01:13;;;;;;;12.48;5.72;;;;;;;-3.90;100.00;98350.56;5151412;27;20043;-62
2021/12/26 07:03:39;;;;;;;15.40;6.47;;;;;;;-3.84;100.00;98355.56;5152321;27;20337;-62
2021/12/26 07:06:05;;;;;;;12.65;6.43;;;;;;;-3.79;100.00;98366.22;5155422;27;20472;-62
2021/12/26 07:08:32;;;;;;;14.85;6.75;;;;;;;-3.81;100.00;98360.34;5155337;27;20047;-62
2021/12/26 07:10:59;;;;;;;14.60;6.65;;;;;;;-3.84;100.00;98357.47;5155234;27;20054;-62
2021/12/26 07:13:25;;;;;;;14.23;6.25;;;;;;;-3.74;100.00;98367.22;5154836;27;20050;-62
2021/12/26 07:15:52;;;;;;;13.90;7.07;;;;;;;-3.78;100.00;98373.16;5154944;27;20074;-62
2021/12/26 07:18:18;;;;;;;13.68;6.43;;;;;;;-3.69;100.00;98383.25;5154849;27;20103;-62
2021/12/26 07:20:44;;;;;;;13.25;6.15;;;;;;;-3.70;100.00;98374.38;5154828;27;20043;-62
2021/12/26 07:23:10;;;;;;;13.43;7.10;;;;;;;-3.60;100.00;98384.16;5154637;27;20062;-62
2021/12/26 07:25:37;;;;;;;13.60;6.93;;;;;;;-3.51;100.00;98385.09;5154656;27;20053;-62
2021/12/26 07:28:05;;;;;;;18.60;7.63;;;;;;;-3.47;100.00;98372.69;5154447;27;20050;-62
2021/12/26 07:30:32;;;;;;;16.45;7.07;;;;;;;-3.43;100.00;98381.78;5154577;27;20110;-62
2021/12/26 07:32:58;;;;;;;13.38;7.13;;;;;;;-3.46;100.00;98378.88;5154688;27;20115;-62
2021/12/26 07:35:24;;;;;;;13.40;7.53;;;;;;;-3.47;100.00;98366.53;5154095;27;20521;-62
2021/12/26 07:37:52;;;;;;;16.40;8.00;;;;;;;-3.44;100.00;98374.78;5154413;27;20464;-62
2021/12/26 07:40:19;;;;;;;17.23;7.60;;;;;;;-3.48;100.00;98373.00;5154426;27;20481;-62
2021/12/26 07:42:46;;;;;;;23.33;10.68;;;;;;;-3.47;100.00;98377.25;5154221;27;20054;-62
2021/12/26 07:45:13;;;;;;;10.18;6.68;;;;;;;-3.59;100.00;98381.19;5154190;27;20050;-62
2021/12/26 07:47:40;;;;;;;11.77;7.00;;;;;;;-3.64;100.00;98375.13;5154628;27;20055;-62
2021/12/26 07:50:07;;;;;;;16.90;7.93;;;;;;;-3.64;100.00;98381.25;5154383;27;20050;-62
2021/12/26 07:52:38;;;;;;;15.00;6.80;;;;;;;-3.61;100.00;98371.84;5154267;27;20050;-62
2021/12/26 07:55:05;;;;;;;16.52;7.05;;;;;;;-3.51;100.00;98371.69;5153791;27;20087;-62
2021/12/26 07:57:32;;;;;;;14.02;6.57;;;;;;;-3.61;100.00;98377.22;5154465;27;20050;-62
2021/12/26 07:59:58;;;;;;;13.07;5.88;;;;;;;-3.49;100.00;98374.09;5154053;27;20390;-62
2021/12/26 08:02:25;;;;;;;9.70;5.22;;;;;;;-3.41;100.00;98379.56;5153954;27;20428;-62
2021/12/26 08:04:51;;;;;;;10.95;6.30;;;;;;;-3.29;100.00;98397.91;5154190;27;20046;-62
2021/12/26 08:07:18;;;;;;;16.38;5.97;;;;;;;-3.21;100.00;98389.16;5153841;27;20094;-62
2021/12/26 08:09:44;;;;;;;9.27;5.55;;;;;;;-3.25;100.00;98390.84;5154140;27;20121;-62
2021/12/26 08:12:10;;;;;;;14.38;5.93;;;;;;;-3.19;100.00;98395.03;5153805;27;20057;-62
2021/12/26 08:14:37;;;;;;;10.77;4.95;;;;;;;-3.20;100.00;98408.72;5153474;27;20051;-62
2021/12/26 08:17:04;;;;;;;12.48;5.95;;;;;;;-3.12;100.00;98398.16;5153703;27;20053;-62
2021/12/26 08:19:31;;;;;;;14.57;5.20;;;;;;;-3.05;100.00;98403.13;5153791;27;20042;-62
2021/12/26 08:21:57;;;;;;;12.90;4.78;;;;;;;-3.05;100.00;98408.50;5153424;27;20054;-62
2021/12/26 08:24:26;;;;;;;8.52;4.18;;;;;;;-2.94;100.00;98401.84;5154124;27;20451;-62
2021/12/26 08:26:53;;;;;;;9.40;5.07;;;;;;;-2.90;100.00;98391.31;5153701;27;20051;-62
2021/12/26 08:29:21;;;;;;;10.65;4.55;;;;;;;-2.80;100.00;98395.72;5153511;27;20058;-62
2021/12/26 08:31:48;;;;;;;9.73;4.57;;;;;;;-2.74;100.00;98389.19;5153809;27;20051;-62
2021/12/26 08:34:19;;;;;;;7.72;4.25;;;;;;;-2.67;100.00;98389.56;5153100;27;20130;-62
2021/12/26 08:36:49;;;;;;;7.45;3.83;;;;;;;-2.67;100.00;98376.16;5153915;27;20047;-62
2021/12/26 08:39:15;;;;;;;9.68;4.80;;;;;;;-2.62;100.00;98381.44;5153399;27;20050;-62
2021/12/26 08:41:41;;;;;;;12.00;5.03;;;;;;;-2.55;100.00;98368.44;5153416;27;20050;-62
2021/12/26 08:44:07;;;;;;;7.57;4.28;;;;;;;-2.48;100.00;98366.13;5153405;27;20053;-62
2021/12/26 08:46:34;;;;;;;11.30;4.93;;;;;;;-2.60;100.00;98341.69;5153623;27;20051;-62
2021/12/26 08:49:00;;;;;;;8.52;5.03;;;;;;;-2.54;100.00;98358.47;5153569;27;20209;-63
2021/12/26 08:51:26;;;;;;;7.00;4.18;;;;;;;-2.61;100.00;98354.31;5153311;27;20235;-61
2021/12/26 08:53:53;;;;;;;7.95;4.75;;;;;;;-2.53;100.00;98368.13;5153359;27;20062;-62
2021/12/26 08:56:19;;;;;;;8.75;4.15;;;;;;;-2.49;100.00;98363.75;5153393;27;20046;-63
2021/12/26 08:58:46;;;;;;;11.05;4.40;;;;;;;-2.54;100.00;98359.28;5153325;27;20051;-63
2021/12/26 09:01:12;;;;;;;10.98;4.35;;;;;;;-2.50;100.00;98367.53;5153087;27;20050;-63
2021/12/26 09:03:38;;;;;;;11.60;4.75;;;;;;;-2.50;100.00;98341.50;5153272;27;20051;-62
2021/12/26 09:06:04;;;;;;;8.88;4.13;;;;;;;-2.49;100.00;98348.44;5153006;27;20147;-62
2021/12/26 09:08:30;;;;;;;7.72;4.05;;;;;;;-2.52;100.00;98346.38;5153208;27;20043;-62
2021/12/26 09:10:57;;;;;;;9.15;4.30;;;;;;;-2.57;100.00;98351.81;5153248;27;20053;-62
2021/12/26 09:13:24;;;;;;;11.55;4.72;;;;;;;-2.55;100.00;98348.84;5152961;27;20058;-62
2021/12/26 09:15:50;;;;;;;8.82;4.18;;;;;;;-2.45;100.00;98349.44;5152759;27;20043;-62
2021/12/26 09:18:16;;;;;;;9.38;4.28;;;;;;;-2.33;100.00;98338.22;5152742;27;20055;-61
2021/12/26 09:20:42;;;;;;;10.65;4.38;;;;;;;-2.44;100.00;98334.13;5152739;27;20051;-62
2021/12/26 09:23:09;;;;;;;11.32;4.43;;;;;;;-2.39;100.00;98318.72;5152766;27;20051;-62
2021/12/26 09:25:35;;;;;;;10.10;4.55;;;;;;;-2.43;100.00;98315.06;5152618;27;20049;-62
2021/12/26 09:28:02;;;;;;;8.20;4.47;;;;;;;-2.30;100.00;98318.00;5151718;27;20423;-62
2021/12/26 09:30:28;;;;;;;7.75;4.30;;;;;;;-2.28;100.00;98305.06;5152955;27;20427;-62
2021/12/26 09:32:54;;;;;;;12.95;5.03;;;;;;;-2.15;100.00;98288.94;5152635;27;20102;-63
2021/12/26 09:35:21;;;;;;;7.22;4.25;;;;;;;-2.20;100.00;98277.50;5152272;27;20046;-62
2021/12/26 09:37:47;;;;;;;10.07;4.28;;;;;;;-2.21;100.00;98263.28;5152660;27;20050;-62
2021/12/26 09:40:15;;;;;;;12.05;4.53;;;;;;;-2.31;100.00;98255.47;5152517;27;20061;-62
2021/12/26 09:42:43;;;;;;;9.85;4.80;;;;;;;-2.29;100.00;98282.81;5152333;27;20138;-62
2021/12/26 09:45:11;;;;;;;14.30;5.20;;;;;;;-2.26;100.00;98292.16;5152324;27;20051;-62
2021/12/26 09:47:38;;;;;;;8.38;4.90;;;;;;;-2.22;100.00;98325.34;5152342;27;20047;-62
2021/12/26 09:50:06;;;;;;;11.57;4.85;;;;;;;-2.14;100.00;98343.44;5152430;27;20133;-62
2021/12/26 09:52:32;;;;;;;8.88;4.93;;;;;;;-2.16;100.00;98346.44;5152381;27;20099;-63
2021/12/26 09:54:59;;;;;;;13.63;4.93;;;;;;;-2.17;100.00;98344.03;5152516;27;20137;-62
2021/12/26 09:57:25;;;;;;;11.55;4.05;;;;;;;-2.00;100.00;98338.84;5152428;27;20042;-62
2021/12/26 09:59:52;;;;;;;9.75;4.65;;;;;;;-2.09;100.00;98313.78;5152113;27;20046;-63
2021/12/26 10:02:19;;;;;;;9.85;4.40;;;;;;;-2.06;100.00;98302.44;5151955;27;20141;-62
2021/12/26 10:04:46;;;;;;;11.80;4.53;;;;;;;-1.97;100.00;98305.19;5151826;27;20047;-62
2021/12/26 10:07:15;;;;;;;8.73;4.57;;;;;;;-1.85;100.00;98275.13;5151904;27;20042;-62
2021/12/26 10:09:44;;;;;;;11.77;4.47;;;;;;;-1.83;100.00;98246.03;5151801;27;20054;-62
2021/12/26 10:12:13;;;;;;;6.38;3.90;;;;;;;-1.75;100.00;98229.19;5151796;27;20138;-62
2021/12/26 10:14:41;;;;;;;7.63;3.85;;;;;;;-1.84;100.00;98212.22;5151719;27;20054;-62
2021/12/26 10:17:10;;;;;;;11.48;4.55;;;;;;;-1.90;100.00;98206.97;5151853;27;20054;-62
2021/12/26 10:19:39;;;;;;;12.02;4.35;;;;;;;-1.97;100.00;98195.06;5151949;27;20055;-62
2021/12/26 10:22:07;;;;;;;9.05;4.40;;;;;;;-2.04;100.00;98208.13;5151777;27;20054;-62
2021/12/26 10:24:35;;;;;;;9.10;3.85;;;;;;;-2.08;100.00;98207.16;5152225;27;20542;-63
2021/12/26 10:27:04;;;;;;;7.00;3.85;;;;;;;-2.18;100.00;98240.41;5151674;27;20043;-62
2021/12/26 10:29:33;;;;;;;8.35;3.67;;;;;;;-2.18;100.00;98257.31;5151626;27;20576;-62
2021/12/26 10:32:07;;;;;;;7.60;3.63;;;;;;;-2.11;100.00;98274.91;5151471;27;20057;-62
2021/12/26 10:34:40;;;;;;;7.10;3.63;;;;;;;-2.17;100.00;98274.22;5151241;27;20050;-62
2021/12/26 10:37:10;;;;;;;8.70;3.47;;;;;;;-2.21;100.00;98274.03;5151382;27;20090;-62
2021/12/26 10:39:40;;;;;;;10.55;4.35;;;;;;;-2.20;100.00;98296.28;5151327;27;20058;-63
2021/12/26 10:42:09;;;;;;;9.68;3.92;;;;;;;-2.14;100.00;98292.41;5151213;27;20142;-62
2021/12/26 10:44:39;;;;;;;9.85;3.72;;;;;;;-2.09;100.00;98300.38;5151337;27;20049;-62
2021/12/26 10:47:09;;;;;;;6.97;3.60;;;;;;;-1.97;100.00;98310.56;5151693;27;20046;-63
2021/12/26 10:49:41;;;;;;;6.72;3.40;;;;;;;-1.86;100.00;98311.16;5151271;27;20042;-62
2021/12/26 10:52:13;;;;;;;9.73;3.67;;;;;;;-1.80;100.00;98283.84;5151502;27;20056;-62
2021/12/26 10:54:41;;;;;;;9.48;3.72;;;;;;;-1.90;100.00;98278.69;5151473;27;20055;-63
2021/12/26 10:57:13;;;;;;;9.15;3.58;;;;;;;-1.92;100.00;98284.38;5151469;27;20099;-62
2021/12/26 10:59:44;;;;;;;7.45;3.28;;;;;;;-1.88;100.00;98307.97;5151299;27;20047;-63
2021/12/26 11:02:24;;;;;;;7.82;3.40;;;;;;;-1.94;100.00;98289.25;5150985;27;20137;-62
2021/12/26 11:04:58;;;;;;;8.65;3.05;;;;;;;-1.99;100.00;98278.66;5151182;27;20043;-62
2021/12/26 11:07:24;;;;;;;5.90;3.37;;;;;;;-2.01;100.00;98302.31;5151330;27;20042;-62
2021/12/26 11:10:07;;;;;;;8.05;3.42;;;;;;;-1.91;100.00;98309.34;5151230;27;20284;-63
2021/12/26 11:12:38;;;;;;;5.47;2.75;;;;;;;-1.73;100.00;98307.63;5149183;27;20159;-63
2021/12/26 11:15:06;;;;;;;16.48;3.15;;;;;;;-1.73;100.00;98299.56;5151282;27;20098;-62
2021/12/26 11:17:39;;;;;;;5.38;2.97;;;;;;;-1.82;100.00;98282.56;5150953;27;20047;-62
2021/12/26 11:20:07;;;;;;;4.75;2.83;;;;;;;-1.81;100.00;98265.34;5150974;27;20427;-62
2021/12/26 11:22:33;;;;;;;7.68;2.90;;;;;;;-1.64;100.00;98286.16;5151062;27;20149;-63